Dades meteomassalio
Diari Summary for Noviembre 10, 2017 Units:  Metric    English   Both
« Previous Day
Next Day »
Diari Semanal Mensual Anual Personalitzat
  Maxima: Minima: Mijana:
Temperatura: 16.1 °C 2.8 °C 10.5 °C
Rosada: 8.8 °C -1.8 °C 4.5 °C
Humitat: 77 % 51 % 67 %
Velocitat del vent: 46.3 km/h 8.0 km/h 22.3 km/h
Racha vent: 46.3 km/h - -
Vent:- - NW
Pressio: 1030.7 hPa 1027.7 hPa -
Pluja: 0.0 mm    
Historical Graphs
 
 
Tabular Data for Noviembre 10, 2017
Time Temperature Dew Point Pressure Wind Wind Speed Wind Gust Humidity Rainfall Rate (Hourly) solar Conditions
00:04 7.2 °C 3.3 °C 1029.0 hPa NW 20.9 km/h 20.9 km/h 76 % 0.0 mm 0.0 W/m2 CLR
00:09 7.2 °C 3.3 °C 1029.0 hPa WNW 22.2 km/h 22.2 km/h 76 % 0.0 mm 0.0 W/m2 CLR
00:14 7.2 °C 3.3 °C 1029.3 hPa NW 22.5 km/h 22.5 km/h 76 % 0.0 mm 0.0 W/m2 CLR
00:19 7.2 °C 3.3 °C 1029.3 hPa WNW 22.5 km/h 22.5 km/h 76 % 0.0 mm 0.0 W/m2 CLR
00:24 7.2 °C 3.1 °C 1029.3 hPa WNW 25.9 km/h 25.9 km/h 75 % 0.0 mm 0.0 W/m2 CLR
00:30 7.2 °C 3.1 °C 1029.7 hPa WNW 18.5 km/h 18.5 km/h 75 % 0.0 mm 0.0 W/m2 CLR
00:35 6.7 °C 2.7 °C 1029.7 hPa WNW 18.5 km/h 18.5 km/h 76 % 0.0 mm 0.0 W/m2 CLR
00:40 6.7 °C 2.7 °C 1029.7 hPa WSW 18.5 km/h 18.5 km/h 76 % 0.0 mm 0.0 W/m2 CLR
00:45 6.7 °C 2.7 °C 1029.7 hPa West 18.5 km/h 18.5 km/h 76 % 0.0 mm 0.0 W/m2 CLR
00:50 6.7 °C 2.7 °C 1029.3 hPa NW 11.3 km/h 11.4 km/h 76 % 0.0 mm 0.0 W/m2 CLR
00:55 6.7 °C 2.7 °C 1029.3 hPa WSW 9.3 km/h 9.3 km/h 76 % 0.0 mm 0.0 W/m2 CLR
01:00 6.7 °C 2.7 °C 1029.3 hPa West 12.9 km/h 12.9 km/h 76 % 0.0 mm 0.0 W/m2 CLR
01:05 6.7 °C 2.9 °C 1029.3 hPa WNW 18.5 km/h 18.5 km/h 77 % 0.0 mm 0.0 W/m2 CLR
01:10 6.7 °C 2.7 °C 1029.3 hPa West 18.5 km/h 18.5 km/h 76 % 0.0 mm 0.0 W/m2 CLR
01:15 6.7 °C 2.7 °C 1029.3 hPa West 11.1 km/h 11.1 km/h 76 % 0.0 mm 0.0 W/m2 CLR
01:20 6.7 °C 2.7 °C 1029.3 hPa West 9.7 km/h 9.7 km/h 76 % 0.0 mm 0.0 W/m2 CLR
01:25 6.1 °C 2.2 °C 1029.3 hPa WNW 14.8 km/h 14.8 km/h 76 % 0.0 mm 0.0 W/m2 CLR
01:30 6.7 °C 2.7 °C 1029.3 hPa West 16.1 km/h 16.1 km/h 76 % 0.0 mm 0.0 W/m2 CLR
01:35 6.7 °C 2.7 °C 1029.3 hPa West 18.5 km/h 18.5 km/h 76 % 0.0 mm 0.0 W/m2 CLR
01:40 6.1 °C 2.2 °C 1029.3 hPa West 16.7 km/h 16.7 km/h 76 % 0.0 mm 0.0 W/m2 CLR
01:45 6.1 °C 2.2 °C 1029.3 hPa WNW 12.9 km/h 12.9 km/h 76 % 0.0 mm 0.0 W/m2 CLR
01:50 6.1 °C 2.2 °C 1029.3 hPa West 11.1 km/h 11.1 km/h 76 % 0.0 mm 0.0 W/m2 CLR
01:55 6.1 °C 2.2 °C 1029.3 hPa West 8.0 km/h 8.0 km/h 76 % 0.0 mm 0.0 W/m2 CLR
02:00 6.1 °C 2.2 °C 1029.3 hPa West 14.8 km/h 14.8 km/h 76 % 0.0 mm 0.0 W/m2 CLR
02:06 6.1 °C 2.2 °C 1029.3 hPa WNW 16.7 km/h 16.7 km/h 76 % 0.0 mm 0.0 W/m2 CLR
02:11 6.1 °C 2.2 °C 1029.3 hPa West 14.5 km/h 14.5 km/h 76 % 0.0 mm 0.0 W/m2 CLR
02:16 6.7 °C 2.7 °C 1029.3 hPa WNW 16.7 km/h 16.7 km/h 76 % 0.0 mm 0.0 W/m2 CLR
02:21 6.7 °C 2.7 °C 1029.0 hPa WNW 18.5 km/h 18.5 km/h 76 % 0.0 mm 0.0 W/m2 CLR
02:26 6.1 °C 2.2 °C 1029.0 hPa West 24.1 km/h 24.1 km/h 76 % 0.0 mm 0.0 W/m2 CLR
02:31 6.1 °C 2.0 °C 1029.0 hPa WNW 22.2 km/h 22.2 km/h 75 % 0.0 mm 0.0 W/m2 CLR
02:36 6.1 °C 1.8 °C 1029.0 hPa WNW 22.5 km/h 22.5 km/h 74 % 0.0 mm 0.0 W/m2 CLR
02:41 6.7 °C 2.3 °C 1029.0 hPa West 18.5 km/h 18.5 km/h 74 % 0.0 mm 0.0 W/m2 CLR
02:46 6.7 °C 2.3 °C 1029.0 hPa WNW 24.1 km/h 24.1 km/h 74 % 0.0 mm 0.0 W/m2 CLR
02:51 6.7 °C 2.3 °C 1029.0 hPa NW 25.9 km/h 25.9 km/h 74 % 0.0 mm 0.0 W/m2 CLR
02:56 6.7 °C 2.3 °C 1029.0 hPa WNW 25.9 km/h 25.9 km/h 74 % 0.0 mm 0.0 W/m2 CLR
03:01 6.7 °C 2.2 °C 1029.0 hPa WNW 24.1 km/h 24.1 km/h 73 % 0.0 mm 0.0 W/m2 CLR
03:06 6.7 °C 2.3 °C 1029.0 hPa WNW 18.5 km/h 18.5 km/h 74 % 0.0 mm 0.0 W/m2 CLR
03:11 6.7 °C 2.3 °C 1029.0 hPa WNW 22.2 km/h 22.2 km/h 74 % 0.0 mm 0.0 W/m2 CLR
03:16 6.7 °C 2.3 °C 1029.0 hPa WNW 27.8 km/h 27.8 km/h 74 % 0.0 mm 0.0 W/m2 CLR
03:21 6.1 °C 1.8 °C 1029.0 hPa NW 29.6 km/h 29.6 km/h 74 % 0.0 mm 0.0 W/m2 CLR
03:26 6.7 °C 2.2 °C 1029.0 hPa NW 25.9 km/h 25.9 km/h 73 % 0.0 mm 0.0 W/m2 CLR
03:31 6.7 °C 2.2 °C 1029.0 hPa WNW 22.2 km/h 22.2 km/h 73 % 0.0 mm 0.0 W/m2 CLR
03:36 6.7 °C 2.2 °C 1029.0 hPa WNW 22.2 km/h 22.2 km/h 73 % 0.0 mm 0.0 W/m2 CLR
03:41 6.7 °C 2.2 °C 1029.0 hPa WNW 18.5 km/h 18.5 km/h 73 % 0.0 mm 0.0 W/m2 CLR
03:46 6.7 °C 2.2 °C 1029.0 hPa WNW 27.8 km/h 27.8 km/h 73 % 0.0 mm 0.0 W/m2 CLR
03:51 6.7 °C 2.2 °C 1029.0 hPa NW 22.2 km/h 22.2 km/h 73 % 0.0 mm 0.0 W/m2 CLR
03:56 6.7 °C 2.2 °C 1029.0 hPa NW 29.6 km/h 29.6 km/h 73 % 0.0 mm 0.0 W/m2 CLR
04:01 6.7 °C 2.2 °C 1029.0 hPa NW 27.8 km/h 27.8 km/h 73 % 0.0 mm 0.0 W/m2 CLR
04:06 6.7 °C 2.2 °C 1029.0 hPa West 24.1 km/h 24.1 km/h 73 % 0.0 mm 0.0 W/m2 CLR
04:11 6.7 °C 2.2 °C 1029.0 hPa NW 24.1 km/h 24.1 km/h 73 % 0.0 mm 0.0 W/m2 CLR
04:16 6.7 °C 2.2 °C 1029.0 hPa WNW 24.1 km/h 24.1 km/h 73 % 0.0 mm 0.0 W/m2 CLR
04:21 6.7 °C 2.2 °C 1029.0 hPa West 16.7 km/h 16.7 km/h 73 % 0.0 mm 0.0 W/m2 CLR
04:26 6.7 °C 2.2 °C 1029.0 hPa WNW 16.7 km/h 16.7 km/h 73 % 0.0 mm 0.0 W/m2 CLR
04:31 6.7 °C 2.2 °C 1029.0 hPa West 18.5 km/h 18.5 km/h 73 % 0.0 mm 0.0 W/m2 CLR
04:36 6.7 °C 2.2 °C 1029.0 hPa West 20.4 km/h 20.4 km/h 73 % 0.0 mm 0.0 W/m2 CLR
04:41 6.1 °C 1.6 °C 1029.0 hPa West 18.5 km/h 18.5 km/h 73 % 0.0 mm 0.0 W/m2 CLR
04:46 6.7 °C 2.2 °C 1029.0 hPa West 18.5 km/h 18.5 km/h 73 % 0.0 mm 0.0 W/m2 CLR
04:51 6.1 °C 1.6 °C 1029.0 hPa West 18.5 km/h 18.5 km/h 73 % 0.0 mm 0.0 W/m2 CLR
04:56 6.1 °C 1.6 °C 1029.0 hPa WNW 18.5 km/h 18.5 km/h 73 % 0.0 mm 0.0 W/m2 CLR
05:01 6.1 °C 1.6 °C 1029.0 hPa West 9.7 km/h 9.7 km/h 73 % 0.0 mm 0.0 W/m2 CLR
05:06 6.1 °C 1.8 °C 1029.0 hPa WNW 18.5 km/h 18.5 km/h 74 % 0.0 mm 0.0 W/m2 CLR
05:11 6.1 °C 1.8 °C 1029.0 hPa West 18.5 km/h 18.5 km/h 74 % 0.0 mm 0.0 W/m2 CLR
05:16 5.6 °C 1.3 °C 1029.0 hPa West 18.5 km/h 18.5 km/h 74 % 0.0 mm 0.0 W/m2 CLR
05:21 5.6 °C 1.1 °C 1029.0 hPa West 14.8 km/h 14.8 km/h 73 % 0.0 mm 0.0 W/m2 CLR
05:26 5.6 °C 1.3 °C 1029.0 hPa West 16.7 km/h 16.7 km/h 74 % 0.0 mm 0.0 W/m2 CLR
05:27 5.6 °C 1.3 °C 1029.0 hPa West 16.7 km/h 16.7 km/h 74 % 0.0 mm 0.0 W/m2 CLR
05:32 6.1 °C 1.8 °C 1029.0 hPa West 14.8 km/h 14.8 km/h 74 % 0.0 mm 0.0 W/m2 CLR
05:37 6.1 °C 2.0 °C 1029.0 hPa West 18.5 km/h 18.5 km/h 75 % 0.0 mm 0.0 W/m2 CLR
05:42 6.1 °C 2.0 °C 1029.0 hPa West 14.8 km/h 14.8 km/h 75 % 0.0 mm 0.0 W/m2 CLR
05:47 6.1 °C 2.0 °C 1029.3 hPa WNW 18.5 km/h 18.5 km/h 75 % 0.0 mm 0.0 W/m2 CLR
05:52 6.1 °C 2.0 °C 1029.3 hPa West 20.4 km/h 20.4 km/h 75 % 0.0 mm 0.0 W/m2 CLR
05:57 6.1 °C 2.0 °C 1029.3 hPa West 16.7 km/h 16.7 km/h 75 % 0.0 mm 0.0 W/m2 CLR
06:02 6.1 °C 2.2 °C 1029.3 hPa West 16.7 km/h 16.7 km/h 76 % 0.0 mm 0.0 W/m2 CLR
06:07 6.1 °C 2.2 °C 1029.0 hPa WNW 16.7 km/h 16.7 km/h 76 % 0.0 mm 0.0 W/m2 CLR
06:12 5.6 °C 1.7 °C 1029.0 hPa West 16.7 km/h 16.7 km/h 76 % 0.0 mm 0.0 W/m2 CLR
06:17 5.6 °C 1.7 °C 1029.0 hPa WNW 18.5 km/h 18.5 km/h 76 % 0.0 mm 0.0 W/m2 CLR
06:22 5.6 °C 1.3 °C 1029.0 hPa WNW 20.4 km/h 20.4 km/h 74 % 0.0 mm 0.0 W/m2 CLR
06:27 5.6 °C 1.3 °C 1029.0 hPa West 20.4 km/h 20.4 km/h 74 % 0.0 mm 0.0 W/m2 CLR
06:32 5.6 °C 1.1 °C 1028.7 hPa WNW 18.5 km/h 18.5 km/h 73 % 0.0 mm 0.0 W/m2 CLR
06:37 6.1 °C 1.6 °C 1029.0 hPa West 18.5 km/h 18.8 km/h 73 % 0.0 mm 0.0 W/m2 CLR
06:42 5.6 °C 1.1 °C 1028.7 hPa NW 20.4 km/h 20.4 km/h 73 % 0.0 mm 0.0 W/m2 CLR
06:47 5.6 °C 1.1 °C 1028.7 hPa WNW 19.3 km/h 19.3 km/h 73 % 0.0 mm 0.0 W/m2 CLR
06:52 5.0 °C 0.6 °C 1028.7 hPa West 18.5 km/h 18.5 km/h 73 % 0.0 mm 0.0 W/m2 CLR
06:57 5.6 °C 1.1 °C 1028.7 hPa WNW 16.7 km/h 16.7 km/h 73 % 0.0 mm 0.0 W/m2 CLR
07:02 5.6 °C 1.1 °C 1028.7 hPa WNW 16.7 km/h 16.7 km/h 73 % 0.0 mm 0.0 W/m2 CLR
07:07 5.6 °C 1.1 °C 1028.7 hPa West 19.3 km/h 19.3 km/h 73 % 0.0 mm 0.0 W/m2 CLR
07:12 5.6 °C 1.1 °C 1028.7 hPa WNW 18.5 km/h 18.5 km/h 73 % 0.0 mm 0.0 W/m2 CLR
07:17 5.6 °C 1.1 °C 1029.0 hPa WNW 18.5 km/h 18.5 km/h 73 % 0.0 mm 0.0 W/m2 CLR
07:22 5.0 °C 0.6 °C 1029.0 hPa WNW 18.5 km/h 18.5 km/h 73 % 0.0 mm 0.0 W/m2 CLR
07:27 4.4 °C 0.0 °C 1029.0 hPa West 18.5 km/h 18.5 km/h 73 % 0.0 mm 0.0 W/m2 CLR
07:32 4.4 °C 0.0 °C 1029.0 hPa West 16.7 km/h 16.7 km/h 73 % 0.0 mm 0.0 W/m2 OVC
07:37 4.4 °C 0.0 °C 1029.0 hPa West 13.0 km/h 13.0 km/h 73 % 0.0 mm 0.0 W/m2 OVC
07:42 3.9 °C -0.5 °C 1029.3 hPa West 13.0 km/h 13.0 km/h 73 % 0.0 mm 5.0 W/m2 OVC
07:47 3.9 °C -0.5 °C 1029.3 hPa West 14.8 km/h 14.8 km/h 73 % 0.0 mm 7.0 W/m2 OVC
07:52 3.9 °C -0.5 °C 1029.3 hPa West 13.0 km/h 13.0 km/h 73 % 0.0 mm 9.0 W/m2 OVC
07:57 3.3 °C -1.1 °C 1029.3 hPa WNW 11.1 km/h 11.1 km/h 73 % 0.0 mm 12.0 W/m2 OVC
08:02 3.3 °C -1.1 °C 1029.3 hPa West 14.8 km/h 14.8 km/h 73 % 0.0 mm 14.0 W/m2 OVC
08:07 2.8 °C -1.6 °C 1029.3 hPa WNW 18.5 km/h 18.5 km/h 73 % 0.0 mm 16.0 W/m2 OVC
08:12 2.8 °C -1.8 °C 1029.3 hPa West 11.1 km/h 11.1 km/h 72 % 0.0 mm 21.0 W/m2 OVC
08:17 2.8 °C -1.8 °C 1029.3 hPa NW 9.3 km/h 9.3 km/h 72 % 0.0 mm 28.0 W/m2 OVC
08:22 2.8 °C -1.8 °C 1029.3 hPa NW 16.7 km/h 16.7 km/h 72 % 0.0 mm 37.0 W/m2 OVC
08:27 3.3 °C -1.4 °C 1029.3 hPa WNW 18.5 km/h 18.5 km/h 71 % 0.0 mm 46.0 W/m2 OVC
08:32 4.4 °C -0.6 °C 1029.3 hPa WNW 18.5 km/h 18.5 km/h 70 % 0.0 mm 49.0 W/m2 OVC
08:37 5.6 °C 0.5 °C 1029.7 hPa WNW 18.5 km/h 18.5 km/h 70 % 0.0 mm 77.0 W/m2 OVC
08:42 6.1 °C 0.8 °C 1029.7 hPa West 18.5 km/h 18.5 km/h 69 % 0.0 mm 93.0 W/m2 OVC
08:47 6.7 °C 1.6 °C 1030.0 hPa WNW 18.5 km/h 18.5 km/h 70 % 0.0 mm 95.0 W/m2 BKN
08:52 6.7 °C 1.4 °C 1030.0 hPa WNW 18.5 km/h 18.5 km/h 69 % 0.0 mm 123.0 W/m2 CLR
08:57 6.7 °C 1.4 °C 1030.0 hPa WNW 18.5 km/h 18.5 km/h 69 % 0.0 mm 137.0 W/m2 CLR
09:02 7.2 °C 1.9 °C 1030.0 hPa WNW 18.5 km/h 18.5 km/h 69 % 0.0 mm 156.0 W/m2 CLR
09:07 7.8 °C 2.4 °C 1030.0 hPa West 17.7 km/h 17.7 km/h 69 % 0.0 mm 171.0 W/m2 CLR
09:12 7.8 °C 2.4 °C 1030.0 hPa WNW 18.5 km/h 18.5 km/h 69 % 0.0 mm 186.0 W/m2 CLR
09:17 7.8 °C 2.2 °C 1030.0 hPa NW 14.8 km/h 14.8 km/h 68 % 0.0 mm 149.0 W/m2 CLR
09:22 8.3 °C 2.8 °C 1030.0 hPa NW 22.5 km/h 22.5 km/h 68 % 0.0 mm 206.0 W/m2 CLR
09:27 8.3 °C 2.8 °C 1030.0 hPa NW 22.2 km/h 22.2 km/h 68 % 0.0 mm 234.0 W/m2 CLR
09:32 8.3 °C 2.8 °C 1030.0 hPa WNW 20.4 km/h 20.4 km/h 68 % 0.0 mm 250.0 W/m2 CLR
09:37 8.9 °C 3.3 °C 1030.0 hPa NW 18.5 km/h 18.5 km/h 68 % 0.0 mm 262.0 W/m2 CLR
09:42 8.9 °C 3.3 °C 1030.0 hPa NW 22.2 km/h 22.2 km/h 68 % 0.0 mm 274.0 W/m2 CLR
09:47 8.9 °C 3.1 °C 1030.4 hPa NW 18.5 km/h 18.5 km/h 67 % 0.0 mm 288.0 W/m2 CLR
09:52 8.9 °C 3.1 °C 1030.4 hPa WNW 22.2 km/h 22.2 km/h 67 % 0.0 mm 299.0 W/m2 CLR
09:57 9.4 °C 3.8 °C 1030.4 hPa NNW 16.7 km/h 16.7 km/h 68 % 0.0 mm 311.0 W/m2 CLR
10:02 9.4 °C 3.6 °C 1030.4 hPa NW 25.9 km/h 25.9 km/h 67 % 0.0 mm 323.0 W/m2 CLR
10:07 9.4 °C 3.6 °C 1030.4 hPa NNW 18.5 km/h 18.5 km/h 67 % 0.0 mm 336.0 W/m2 CLR
10:12 9.4 °C 3.6 °C 1030.4 hPa NNW 20.4 km/h 20.4 km/h 67 % 0.0 mm 346.0 W/m2 CLR
10:17 10.0 °C 3.7 °C 1030.4 hPa NW 25.9 km/h 25.9 km/h 65 % 0.0 mm 357.0 W/m2 CLR
10:22 10.0 °C 3.7 °C 1030.4 hPa NNW 22.2 km/h 22.2 km/h 65 % 0.0 mm 367.0 W/m2 CLR
10:27 10.0 °C 3.5 °C 1030.7 hPa WNW 18.5 km/h 18.5 km/h 64 % 0.0 mm 378.0 W/m2 CLR
10:32 10.0 °C 3.5 °C 1030.4 hPa NW 18.5 km/h 18.5 km/h 64 % 0.0 mm 388.0 W/m2 CLR
10:37 10.0 °C 3.5 °C 1030.7 hPa NW 20.4 km/h 20.4 km/h 64 % 0.0 mm 397.0 W/m2 CLR
10:42 10.6 °C 3.8 °C 1030.7 hPa NNW 18.5 km/h 18.5 km/h 63 % 0.0 mm 406.0 W/m2 CLR
10:47 10.6 °C 3.8 °C 1030.7 hPa NW 18.5 km/h 18.5 km/h 63 % 0.0 mm 415.0 W/m2 CLR
10:52 10.6 °C 3.3 °C 1030.7 hPa NW 24.1 km/h 24.1 km/h 61 % 0.0 mm 425.0 W/m2 CLR
10:57 10.6 °C 3.1 °C 1030.7 hPa NNW 24.1 km/h 24.1 km/h 60 % 0.0 mm 436.0 W/m2 CLR
11:02 11.1 °C 3.6 °C 1030.7 hPa NW 18.5 km/h 18.5 km/h 60 % 0.0 mm 446.0 W/m2 CLR
11:07 11.1 °C 3.6 °C 1030.7 hPa North 25.9 km/h 25.9 km/h 60 % 0.0 mm 367.0 W/m2 CLR
11:12 11.1 °C 3.9 °C 1030.7 hPa NW 16.7 km/h 16.7 km/h 61 % 0.0 mm 448.0 W/m2 CLR
11:17 11.1 °C 3.9 °C 1030.7 hPa North 24.1 km/h 24.1 km/h 61 % 0.0 mm 464.0 W/m2 CLR
11:22 11.7 °C 4.4 °C 1030.7 hPa NW 25.9 km/h 25.9 km/h 61 % 0.0 mm 471.0 W/m2 CLR
11:27 11.7 °C 4.2 °C 1030.7 hPa NW 27.8 km/h 27.8 km/h 60 % 0.0 mm 482.0 W/m2 CLR
11:33 12.2 °C 4.7 °C 1030.4 hPa WNW 18.5 km/h 18.5 km/h 60 % 0.0 mm 457.0 W/m2 CLR
11:38 12.2 °C 4.4 °C 1030.4 hPa North 18.5 km/h 18.5 km/h 59 % 0.0 mm 475.0 W/m2 CLR
11:43 12.2 °C 3.9 °C 1030.4 hPa NW 18.5 km/h 18.5 km/h 57 % 0.0 mm 473.0 W/m2 CLR
11:48 12.2 °C 3.9 °C 1030.4 hPa NNW 24.1 km/h 24.1 km/h 57 % 0.0 mm 485.0 W/m2 CLR
11:53 12.2 °C 3.9 °C 1030.4 hPa NW 18.5 km/h 18.5 km/h 57 % 0.0 mm 487.0 W/m2 CLR
11:58 12.8 °C 4.4 °C 1030.0 hPa NW 18.5 km/h 18.5 km/h 57 % 0.0 mm 508.0 W/m2 CLR
12:03 12.8 °C 3.9 °C 1030.0 hPa NW 27.8 km/h 27.8 km/h 55 % 0.0 mm 510.0 W/m2 CLR
12:08 12.8 °C 4.2 °C 1030.0 hPa NW 22.2 km/h 22.2 km/h 56 % 0.0 mm 513.0 W/m2 CLR
12:13 12.8 °C 4.2 °C 1030.0 hPa NW 20.4 km/h 20.4 km/h 56 % 0.0 mm 515.0 W/m2 CLR
12:18 12.8 °C 4.2 °C 1029.7 hPa NNW 22.5 km/h 22.5 km/h 56 % 0.0 mm 517.0 W/m2 CLR
12:23 13.3 °C 4.7 °C 1029.7 hPa WNW 14.8 km/h 14.8 km/h 56 % 0.0 mm 519.0 W/m2 CLR
12:28 13.3 °C 4.5 °C 1029.7 hPa NW 19.3 km/h 19.3 km/h 55 % 0.0 mm 520.0 W/m2 CLR
12:33 13.3 °C 4.7 °C 1029.7 hPa NNW 20.4 km/h 20.4 km/h 56 % 0.0 mm 522.0 W/m2 CLR
12:38 13.9 °C 5.2 °C 1029.7 hPa North 22.2 km/h 22.2 km/h 56 % 0.0 mm 524.0 W/m2 CLR
12:43 14.4 °C 5.2 °C 1029.7 hPa North 24.1 km/h 24.1 km/h 54 % 0.0 mm 524.0 W/m2 CLR
12:48 14.4 °C 5.2 °C 1029.3 hPa NNW 25.9 km/h 25.9 km/h 54 % 0.0 mm 526.0 W/m2 CLR
12:53 14.4 °C 5.0 °C 1029.3 hPa NNW 27.8 km/h 27.8 km/h 53 % 0.0 mm 527.0 W/m2 CLR
12:58 14.4 °C 5.0 °C 1029.3 hPa NW 25.9 km/h 25.9 km/h 53 % 0.0 mm 534.0 W/m2 CLR
13:03 13.9 °C 4.4 °C 1029.3 hPa NW 22.2 km/h 22.2 km/h 53 % 0.0 mm 541.0 W/m2 CLR
13:08 14.4 °C 5.0 °C 1029.0 hPa NW 18.5 km/h 18.5 km/h 53 % 0.0 mm 552.0 W/m2 CLR
13:13 15.0 °C 5.8 °C 1029.0 hPa NW 24.1 km/h 24.1 km/h 54 % 0.0 mm 566.0 W/m2 CLR
13:18 15.0 °C 5.2 °C 1029.0 hPa North 22.2 km/h 22.2 km/h 52 % 0.0 mm 568.0 W/m2 CLR
13:23 15.0 °C 5.2 °C 1028.7 hPa NNW 22.2 km/h 22.2 km/h 52 % 0.0 mm 598.0 W/m2 CLR
13:28 15.0 °C 5.2 °C 1028.7 hPa North 17.7 km/h 17.7 km/h 52 % 0.0 mm 580.0 W/m2 CLR
13:33 16.1 °C 5.9 °C 1028.7 hPa NNW 18.5 km/h 18.5 km/h 51 % 0.0 mm 468.0 W/m2 CLR
13:38 15.6 °C 5.4 °C 1028.3 hPa NNW 18.5 km/h 18.5 km/h 51 % 0.0 mm 316.0 W/m2 CLR
13:43 15.0 °C 5.2 °C 1028.3 hPa NNW 22.2 km/h 22.2 km/h 52 % 0.0 mm 302.0 W/m2 CLR
13:48 15.6 °C 5.7 °C 1028.3 hPa NW 22.2 km/h 22.2 km/h 52 % 0.0 mm 383.0 W/m2 CLR
13:53 16.1 °C 6.5 °C 1028.3 hPa NNW 29.6 km/h 29.6 km/h 53 % 0.0 mm 464.0 W/m2 CLR
13:58 16.1 °C 6.5 °C 1028.3 hPa North 27.8 km/h 27.8 km/h 53 % 0.0 mm 387.0 W/m2 CLR
14:03 16.1 °C 6.8 °C 1028.0 hPa North 31.5 km/h 31.5 km/h 54 % 0.0 mm 431.0 W/m2 CLR
14:08 16.1 °C 6.8 °C 1028.0 hPa NW 22.5 km/h 22.5 km/h 54 % 0.0 mm 318.0 W/m2 CLR
14:13 15.6 °C 6.6 °C 1028.0 hPa NNW 25.7 km/h 25.7 km/h 55 % 0.0 mm 334.0 W/m2 CLR
14:18 15.6 °C 6.8 °C 1028.0 hPa North 25.7 km/h 25.7 km/h 56 % 0.0 mm 309.0 W/m2 CLR
14:23 15.6 °C 7.1 °C 1028.0 hPa North 22.5 km/h 22.5 km/h 57 % 0.0 mm 271.0 W/m2 CLR
14:28 15.6 °C 7.1 °C 1028.0 hPa NNW 29.6 km/h 29.6 km/h 57 % 0.0 mm 253.0 W/m2 CLR
14:33 15.6 °C 7.3 °C 1028.0 hPa North 24.1 km/h 24.1 km/h 58 % 0.0 mm 237.0 W/m2 CLR
14:38 15.0 °C 6.8 °C 1028.0 hPa NNW 25.9 km/h 25.9 km/h 58 % 0.0 mm 309.0 W/m2 CLR
14:43 15.6 °C 7.1 °C 1028.0 hPa North 22.2 km/h 22.2 km/h 57 % 0.0 mm 302.0 W/m2 CLR
14:48 15.6 °C 7.1 °C 1028.0 hPa NW 14.8 km/h 14.8 km/h 57 % 0.0 mm 260.0 W/m2 CLR
14:53 15.6 °C 7.1 °C 1028.0 hPa NNW 29.6 km/h 29.6 km/h 57 % 0.0 mm 269.0 W/m2 CLR
14:58 15.6 °C 7.1 °C 1028.0 hPa NNW 29.6 km/h 29.6 km/h 57 % 0.0 mm 244.0 W/m2 CLR
15:03 15.6 °C 6.8 °C 1027.7 hPa North 29.6 km/h 29.6 km/h 56 % 0.0 mm 192.0 W/m2 CLR
15:08 15.6 °C 6.8 °C 1027.7 hPa NW 24.1 km/h 24.1 km/h 56 % 0.0 mm 218.0 W/m2 CLR
15:13 15.6 °C 6.8 °C 1027.7 hPa NNW 24.1 km/h 24.1 km/h 56 % 0.0 mm 195.0 W/m2 CLR
15:18 15.6 °C 6.6 °C 1027.7 hPa NNW 31.5 km/h 31.5 km/h 55 % 0.0 mm 188.0 W/m2 CLR
15:23 15.6 °C 6.8 °C 1027.7 hPa NW 25.9 km/h 25.9 km/h 56 % 0.0 mm 202.0 W/m2 CLR
15:28 15.6 °C 7.1 °C 1027.7 hPa NNW 18.5 km/h 18.5 km/h 57 % 0.0 mm 186.0 W/m2 CLR
15:33 15.6 °C 7.1 °C 1027.7 hPa NW 16.7 km/h 16.7 km/h 57 % 0.0 mm 156.0 W/m2 CLR
15:38 15.6 °C 7.1 °C 1027.7 hPa North 27.8 km/h 27.8 km/h 57 % 0.0 mm 132.0 W/m2 CLR
15:43 15.0 °C 6.6 °C 1028.0 hPa WNW 31.5 km/h 31.5 km/h 57 % 0.0 mm 128.0 W/m2 CLR
15:48 15.0 °C 6.6 °C 1028.0 hPa NNW 24.1 km/h 24.1 km/h 57 % 0.0 mm 125.0 W/m2 CLR
15:53 15.0 °C 6.6 °C 1028.0 hPa North 37.0 km/h 37.0 km/h 57 % 0.0 mm 113.0 W/m2 CLR
15:58 15.0 °C 6.8 °C 1028.0 hPa North 27.8 km/h 27.8 km/h 58 % 0.0 mm 109.0 W/m2 CLR
16:03 15.0 °C 6.8 °C 1028.0 hPa NNW 20.4 km/h 20.4 km/h 58 % 0.0 mm 111.0 W/m2 CLR
16:08 15.0 °C 7.1 °C 1028.0 hPa NNW 24.1 km/h 24.1 km/h 59 % 0.0 mm 102.0 W/m2 CLR
16:13 15.0 °C 7.1 °C 1028.0 hPa NW 22.5 km/h 22.5 km/h 59 % 0.0 mm 98.0 W/m2 CLR
16:18 15.0 °C 7.1 °C 1028.0 hPa North 24.1 km/h 24.1 km/h 59 % 0.0 mm 83.0 W/m2 CLR
16:23 15.0 °C 7.3 °C 1028.0 hPa NNW 18.5 km/h 18.5 km/h 60 % 0.0 mm 84.0 W/m2 CLR
16:28 14.4 °C 6.8 °C 1028.0 hPa NNW 18.5 km/h 18.5 km/h 60 % 0.0 mm 171.0 W/m2 CLR
16:33 15.0 °C 7.1 °C 1028.0 hPa NNW 24.1 km/h 24.1 km/h 59 % 0.0 mm 137.0 W/m2 CLR
16:38 15.0 °C 7.1 °C 1028.0 hPa NNW 18.5 km/h 18.5 km/h 59 % 0.0 mm 116.0 W/m2 CLR
16:43 15.0 °C 7.1 °C 1028.3 hPa NNW 19.3 km/h 19.3 km/h 59 % 0.0 mm 105.0 W/m2 CLR
16:48 15.0 °C 7.1 °C 1028.3 hPa North 27.8 km/h 27.8 km/h 59 % 0.0 mm 98.0 W/m2 CLR
16:49 15.0 °C 7.1 °C 1028.3 hPa NNW 27.8 km/h 27.8 km/h 59 % 0.0 mm 98.0 W/m2 CLR
16:54 15.0 °C 7.1 °C 1028.3 hPa North 24.1 km/h 24.1 km/h 59 % 0.0 mm 86.0 W/m2 FEW
16:59 15.0 °C 7.1 °C 1028.3 hPa North 20.4 km/h 20.4 km/h 59 % 0.0 mm 77.0 W/m2 FEW
17:04 15.0 °C 7.1 °C 1028.3 hPa NW 20.4 km/h 20.4 km/h 59 % 0.0 mm 76.0 W/m2 FEW
17:09 15.0 °C 7.1 °C 1028.0 hPa NW 24.1 km/h 24.1 km/h 59 % 0.0 mm 65.0 W/m2 SCT
17:14 15.0 °C 7.3 °C 1028.0 hPa NW 22.2 km/h 22.2 km/h 60 % 0.0 mm 63.0 W/m2 SCT
17:19 15.0 °C 7.3 °C 1028.0 hPa NNW 27.8 km/h 27.8 km/h 60 % 0.0 mm 53.0 W/m2 SCT
17:24 15.0 °C 7.3 °C 1028.0 hPa NW 31.5 km/h 31.5 km/h 60 % 0.0 mm 39.0 W/m2 BKN
17:29 14.4 °C 6.8 °C 1028.0 hPa NW 18.5 km/h 18.5 km/h 60 % 0.0 mm 26.0 W/m2 BKN
17:34 14.4 °C 6.8 °C 1028.3 hPa NNW 25.9 km/h 25.9 km/h 60 % 0.0 mm 16.0 W/m2 BKN
17:39 14.4 °C 6.8 °C 1028.0 hPa NW 16.7 km/h 16.7 km/h 60 % 0.0 mm 7.0 W/m2 BKN
17:44 14.4 °C 6.8 °C 1028.0 hPa WNW 16.7 km/h 16.7 km/h 60 % 0.0 mm 5.0 W/m2 OVC
17:49 13.9 °C 6.2 °C 1028.0 hPa NW 24.1 km/h 24.1 km/h 60 % 0.0 mm 0.0 W/m2 OVC
17:54 14.4 °C 7.0 °C 1028.0 hPa North 24.1 km/h 24.1 km/h 61 % 0.0 mm 0.0 W/m2 OVC
17:59 14.4 °C 7.2 °C 1028.3 hPa NNW 27.8 km/h 27.8 km/h 62 % 0.0 mm 0.0 W/m2 CLR
18:04 13.9 °C 6.7 °C 1028.0 hPa NW 25.7 km/h 25.7 km/h 62 % 0.0 mm 0.0 W/m2 CLR
18:09 13.9 °C 6.9 °C 1028.3 hPa NW 22.2 km/h 22.2 km/h 63 % 0.0 mm 0.0 W/m2 CLR
18:14 13.9 °C 7.2 °C 1028.3 hPa NNW 32.2 km/h 32.2 km/h 64 % 0.0 mm 0.0 W/m2 CLR
18:19 13.9 °C 7.4 °C 1028.0 hPa NNW 31.5 km/h 31.5 km/h 65 % 0.0 mm 0.0 W/m2 CLR
18:24 13.9 °C 7.4 °C 1028.3 hPa NW 24.1 km/h 24.1 km/h 65 % 0.0 mm 0.0 W/m2 CLR
18:29 13.9 °C 7.2 °C 1028.3 hPa NNW 25.9 km/h 25.9 km/h 64 % 0.0 mm 0.0 W/m2 CLR
18:34 13.9 °C 7.2 °C 1028.3 hPa NW 22.2 km/h 22.2 km/h 64 % 0.0 mm 0.0 W/m2 CLR
18:39 13.9 °C 7.2 °C 1028.3 hPa NW 22.5 km/h 22.5 km/h 64 % 0.0 mm 0.0 W/m2 CLR
18:44 13.9 °C 7.2 °C 1028.3 hPa NW 35.2 km/h 35.2 km/h 64 % 0.0 mm 0.0 W/m2 CLR
18:49 13.9 °C 7.2 °C 1028.3 hPa NW 31.5 km/h 31.5 km/h 64 % 0.0 mm 0.0 W/m2 CLR
18:54 13.3 °C 6.9 °C 1028.3 hPa NNW 35.4 km/h 35.4 km/h 65 % 0.0 mm 0.0 W/m2 CLR
18:59 13.3 °C 6.9 °C 1028.3 hPa NNW 22.5 km/h 22.5 km/h 65 % 0.0 mm 0.0 W/m2 CLR
19:04 13.3 °C 6.9 °C 1028.3 hPa WNW 24.1 km/h 24.1 km/h 65 % 0.0 mm 0.0 W/m2 CLR
19:09 13.3 °C 7.1 °C 1028.3 hPa NW 20.4 km/h 20.4 km/h 66 % 0.0 mm 0.0 W/m2 CLR
19:14 13.3 °C 7.1 °C 1028.3 hPa WNW 25.9 km/h 25.9 km/h 66 % 0.0 mm 0.0 W/m2 CLR
19:19 13.3 °C 7.3 °C 1028.7 hPa NNW 22.5 km/h 22.5 km/h 67 % 0.0 mm 0.0 W/m2 CLR
19:24 13.3 °C 7.3 °C 1028.3 hPa NW 27.8 km/h 27.8 km/h 67 % 0.0 mm 0.0 W/m2 CLR
19:29 13.3 °C 7.3 °C 1028.7 hPa NW 46.3 km/h 46.3 km/h 67 % 0.0 mm 0.0 W/m2 CLR
19:34 13.3 °C 7.3 °C 1028.7 hPa WNW 27.8 km/h 27.8 km/h 67 % 0.0 mm 0.0 W/m2 CLR
19:39 13.3 °C 7.3 °C 1028.7 hPa WNW 33.3 km/h 33.3 km/h 67 % 0.0 mm 0.0 W/m2 CLR
19:44 13.3 °C 7.3 °C 1028.7 hPa NW 20.4 km/h 20.4 km/h 67 % 0.0 mm 0.0 W/m2 CLR
19:49 13.3 °C 7.3 °C 1028.7 hPa WNW 22.2 km/h 22.2 km/h 67 % 0.0 mm 0.0 W/m2 CLR
19:54 13.3 °C 7.3 °C 1028.7 hPa WNW 27.8 km/h 27.8 km/h 67 % 0.0 mm 0.0 W/m2 CLR
19:59 13.3 °C 7.3 °C 1029.0 hPa NNW 24.1 km/h 24.1 km/h 67 % 0.0 mm 0.0 W/m2 CLR
20:04 13.3 °C 7.3 °C 1029.0 hPa NW 20.4 km/h 20.4 km/h 67 % 0.0 mm 0.0 W/m2 CLR
20:09 13.3 °C 7.3 °C 1029.0 hPa NW 24.1 km/h 24.1 km/h 67 % 0.0 mm 0.0 W/m2 CLR
20:14 13.3 °C 7.3 °C 1029.0 hPa NW 14.8 km/h 14.8 km/h 67 % 0.0 mm 0.0 W/m2 CLR
20:19 12.8 °C 7.0 °C 1029.0 hPa NW 29.6 km/h 29.6 km/h 68 % 0.0 mm 0.0 W/m2 CLR
20:24 13.3 °C 7.6 °C 1029.0 hPa NNW 27.4 km/h 27.4 km/h 68 % 0.0 mm 0.0 W/m2 CLR
20:29 13.3 °C 7.6 °C 1029.0 hPa NW 19.3 km/h 19.3 km/h 68 % 0.0 mm 0.0 W/m2 CLR
20:34 13.3 °C 7.6 °C 1029.0 hPa NW 31.5 km/h 31.5 km/h 68 % 0.0 mm 0.0 W/m2 CLR
20:39 12.8 °C 7.0 °C 1029.0 hPa NW 20.9 km/h 20.9 km/h 68 % 0.0 mm 0.0 W/m2 CLR
20:44 12.8 °C 7.0 °C 1029.0 hPa NNW 25.7 km/h 25.7 km/h 68 % 0.0 mm 0.0 W/m2 CLR
20:50 12.8 °C 7.2 °C 1029.0 hPa WNW 22.2 km/h 22.2 km/h 69 % 0.0 mm 0.0 W/m2 CLR
20:54 12.8 °C 7.2 °C 1029.0 hPa NW 31.5 km/h 31.5 km/h 69 % 0.0 mm 0.0 W/m2 CLR
21:00 12.8 °C 7.2 °C 1029.0 hPa NW 31.5 km/h 31.5 km/h 69 % 0.0 mm 0.0 W/m2 CLR
21:05 12.8 °C 7.2 °C 1029.3 hPa North 20.4 km/h 20.4 km/h 69 % 0.0 mm 0.0 W/m2 CLR
21:10 12.8 °C 7.4 °C 1029.3 hPa NW 22.2 km/h 22.2 km/h 70 % 0.0 mm 0.0 W/m2 CLR
21:15 12.8 °C 7.4 °C 1029.3 hPa NW 20.4 km/h 20.4 km/h 70 % 0.0 mm 0.0 W/m2 CLR
21:20 12.8 °C 7.7 °C 1029.3 hPa NW 35.2 km/h 35.2 km/h 71 % 0.0 mm 0.0 W/m2 CLR
21:25 12.8 °C 7.7 °C 1029.3 hPa North 22.5 km/h 22.5 km/h 71 % 0.0 mm 0.0 W/m2 CLR
21:30 12.8 °C 7.8 °C 1029.3 hPa NNW 27.8 km/h 27.8 km/h 72 % 0.0 mm 0.0 W/m2 CLR
21:35 12.8 °C 7.8 °C 1029.3 hPa NW 31.5 km/h 31.5 km/h 72 % 0.0 mm 0.0 W/m2 CLR
21:40 12.8 °C 7.8 °C 1029.3 hPa NNW 31.5 km/h 31.5 km/h 72 % 0.0 mm 0.0 W/m2 CLR
21:45 12.8 °C 8.1 °C 1029.3 hPa North 33.3 km/h 33.3 km/h 73 % 0.0 mm 0.0 W/m2 CLR
21:50 12.8 °C 8.1 °C 1029.3 hPa North 40.7 km/h 40.7 km/h 73 % 0.0 mm 0.0 W/m2 CLR
21:55 12.8 °C 8.1 °C 1029.3 hPa NNW 31.5 km/h 31.5 km/h 73 % 0.0 mm 0.0 W/m2 CLR
22:00 12.8 °C 8.3 °C 1029.3 hPa NNW 33.3 km/h 33.3 km/h 74 % 0.0 mm 0.0 W/m2 CLR
22:05 12.2 °C 7.7 °C 1029.3 hPa North 29.6 km/h 29.6 km/h 74 % 0.0 mm 0.0 W/m2 CLR
22:10 12.2 °C 7.7 °C 1029.3 hPa NW 25.9 km/h 25.9 km/h 74 % 0.0 mm 0.0 W/m2 CLR
22:15 12.2 °C 7.9 °C 1029.3 hPa NW 33.3 km/h 33.3 km/h 75 % 0.0 mm 0.0 W/m2 CLR
22:20 12.2 °C 7.9 °C 1029.3 hPa North 33.3 km/h 33.3 km/h 75 % 0.0 mm 0.0 W/m2 CLR
22:25 12.2 °C 7.9 °C 1029.3 hPa NW 27.8 km/h 27.8 km/h 75 % 0.0 mm 0.0 W/m2 CLR
22:30 12.2 °C 7.9 °C 1029.3 hPa NNW 22.2 km/h 22.2 km/h 75 % 0.0 mm 0.0 W/m2 CLR
22:35 12.2 °C 8.1 °C 1029.3 hPa NNW 33.3 km/h 33.3 km/h 76 % 0.0 mm 0.0 W/m2 CLR
22:40 12.2 °C 8.1 °C 1029.3 hPa NNW 37.0 km/h 37.0 km/h 76 % 0.0 mm 0.0 W/m2 CLR
22:45 12.2 °C 8.1 °C 1029.3 hPa NNW 25.9 km/h 25.9 km/h 76 % 0.0 mm 0.0 W/m2 CLR
22:50 12.2 °C 8.3 °C 1029.3 hPa NW 31.5 km/h 31.5 km/h 77 % 0.0 mm 0.0 W/m2 CLR
22:55 12.2 °C 8.3 °C 1029.3 hPa NW 27.8 km/h 27.8 km/h 77 % 0.0 mm 0.0 W/m2 CLR
23:00 12.2 °C 8.3 °C 1029.3 hPa NW 25.9 km/h 25.9 km/h 77 % 0.0 mm 0.0 W/m2 CLR
23:05 12.2 °C 8.3 °C 1029.3 hPa North 27.8 km/h 27.8 km/h 77 % 0.0 mm 0.0 W/m2 CLR
23:10 12.2 °C 8.3 °C 1029.3 hPa NNW 29.6 km/h 29.6 km/h 77 % 0.0 mm 0.0 W/m2 CLR
23:15 12.2 °C 8.3 °C 1029.0 hPa NW 31.5 km/h 31.5 km/h 77 % 0.0 mm 0.0 W/m2 CLR
23:20 12.8 °C 8.8 °C 1029.0 hPa NNW 25.9 km/h 25.9 km/h 77 % 0.0 mm 0.0 W/m2 CLR
23:25 12.8 °C 8.8 °C 1029.0 hPa NNW 31.5 km/h 31.5 km/h 77 % 0.0 mm 0.0 W/m2 CLR
23:30 12.2 °C 8.3 °C 1029.0 hPa NNW 24.1 km/h 24.1 km/h 77 % 0.0 mm 0.0 W/m2 CLR
23:35 12.2 °C 8.3 °C 1029.0 hPa NW 35.2 km/h 35.2 km/h 77 % 0.0 mm 0.0 W/m2 CLR
23:40 12.2 °C 8.3 °C 1029.0 hPa NW 31.5 km/h 31.5 km/h 77 % 0.0 mm 0.0 W/m2 CLR
23:45 12.2 °C 8.3 °C 1029.0 hPa NW 27.8 km/h 27.8 km/h 77 % 0.0 mm 0.0 W/m2 CLR
23:50 12.2 °C 8.3 °C 1029.0 hPa NNW 24.1 km/h 24.1 km/h 77 % 0.0 mm 0.0 W/m2 CLR
23:55 12.2 °C 8.3 °C 1029.0 hPa NNW 24.1 km/h 24.1 km/h 77 % 0.0 mm 0.0 W/m2 CLR
Lo Temps de Massalio
Compliments of Weather Underground - 1.25 mb